createdAt,value
2019-01-23T20:10:23.524Z,20.90
2019-01-23T20:15:29.026Z,20.40
2019-01-23T20:20:34.631Z,20.80
2019-01-23T20:25:40.282Z,21.00
2019-01-23T20:50:16.784Z,21.30
2019-01-23T20:52:22.206Z,21.20
2019-01-23T21:07:17.719Z,15.90
2019-01-23T21:09:23.146Z,9.30
2019-01-23T21:11:29.943Z,5.40
2019-01-23T21:15:07.345Z,3.60
2019-01-23T21:17:12.749Z,1.80
2019-01-23T21:19:18.231Z,1.10
2019-01-23T21:25:57.567Z,0.80
2019-01-23T21:31:04.196Z,0.30
2019-01-23T21:36:10.464Z,0.00
2019-01-23T21:41:16.756Z,-0.30
2019-01-23T21:46:23.032Z,-0.30
2019-01-23T21:51:29.341Z,-0.50
2019-01-23T21:56:35.708Z,-0.40
2019-01-23T22:01:42.003Z,-0.40
2019-01-23T22:06:48.438Z,-0.50
2019-01-23T22:11:54.715Z,-0.60
2019-01-23T22:17:01.030Z,-0.70
2019-01-23T22:22:08.107Z,-0.70
2019-01-23T22:27:14.718Z,-0.70
2019-01-23T22:32:21.147Z,-0.70
2019-01-23T22:37:27.411Z,-0.80
2019-01-23T22:42:33.760Z,-0.80
2019-01-23T22:47:40.042Z,-0.70
2019-01-23T22:52:46.525Z,-0.70
2019-01-23T22:57:52.841Z,-0.70
2019-01-23T23:02:59.111Z,-0.80
2019-01-23T23:08:06.128Z,-0.80
2019-01-23T23:13:12.568Z,-0.70
2019-01-23T23:18:19.067Z,-0.80
2019-01-23T23:23:25.652Z,-0.90
2019-01-23T23:28:31.983Z,-0.90
2019-01-23T23:33:38.384Z,-0.90
2019-01-23T23:38:45.868Z,-0.90
2019-01-23T23:43:52.140Z,-0.90
2019-01-23T23:48:58.483Z,-0.90
2019-01-23T23:54:06.225Z,-1.00
2019-01-23T23:59:12.458Z,-1.00
